sensor_id;sensor_type;location;lat;lon;timestamp;temperature;humidity
10964;DHT22;5534;48.784;9.190;2022-12-19T00:01:49;1.80;99.90
10964;DHT22;5534;48.784;9.190;2022-12-19T00:04:15;1.80;99.90
10964;DHT22;5534;48.784;9.190;2022-12-19T00:06:44;1.80;99.90
10964;DHT22;5534;48.784;9.190;2022-12-19T00:09:11;1.90;99.90
10964;DHT22;5534;48.784;9.190;2022-12-19T00:11:37;1.80;99.90
10964;DHT22;5534;48.784;9.190;2022-12-19T00:14:03;1.80;99.90
10964;DHT22;5534;48.784;9.190;2022-12-19T00:16:29;1.80;99.90
10964;DHT22;5534;48.784;9.190;2022-12-19T00:18:57;1.70;99.90
10964;DHT22;5534;48.784;9.190;2022-12-19T00:21:26;1.40;99.90
10964;DHT22;5534;48.784;9.190;2022-12-19T00:23:53;1.50;99.90
10964;DHT22;5534;48.784;9.190;2022-12-19T00:26:27;1.60;99.90
10964;DHT22;5534;48.784;9.190;2022-12-19T00:28:55;1.80;99.90
10964;DHT22;5534;48.784;9.190;2022-12-19T00:31:23;1.80;99.90
10964;DHT22;5534;48.784;9.190;2022-12-19T00:33:49;1.80;99.90
10964;DHT22;5534;48.784;9.190;2022-12-19T00:36:21;1.80;99.90
10964;DHT22;5534;48.784;9.190;2022-12-19T00:38:48;1.80;99.90
10964;DHT22;5534;48.784;9.190;2022-12-19T00:41:18;1.80;99.90
10964;DHT22;5534;48.784;9.190;2022-12-19T00:43:44;1.90;99.90
10964;DHT22;5534;48.784;9.190;2022-12-19T00:46:12;1.70;99.90
10964;DHT22;5534;48.784;9.190;2022-12-19T00:48:40;1.60;99.90
10964;DHT22;5534;48.784;9.190;2022-12-19T00:51:09;1.80;99.90
10964;DHT22;5534;48.784;9.190;2022-12-19T00:53:35;1.80;99.90
10964;DHT22;5534;48.784;9.190;2022-12-19T00:56:05;1.80;99.90
10964;DHT22;5534;48.784;9.190;2022-12-19T00:58:31;1.90;99.90
10964;DHT22;5534;48.784;9.190;2022-12-19T01:00:57;2.00;99.90
10964;DHT22;5534;48.784;9.190;2022-12-19T01:03:24;2.10;99.90
10964;DHT22;5534;48.784;9.190;2022-12-19T01:05:50;2.10;99.90
10964;DHT22;5534;48.784;9.190;2022-12-19T01:08:16;2.10;99.90
10964;DHT22;5534;48.784;9.190;2022-12-19T01:10:46;2.10;99.90
10964;DHT22;5534;48.784;9.190;2022-12-19T01:13:12;1.30;99.90
10964;DHT22;5534;48.784;9.190;2022-12-19T01:15:38;2.10;99.90
10964;DHT22;5534;48.784;9.190;2022-12-19T01:18:09;2.20;99.90
10964;DHT22;5534;48.784;9.190;2022-12-19T01:20:39;2.10;99.90
10964;DHT22;5534;48.784;9.190;2022-12-19T01:23:09;2.10;99.90
10964;DHT22;5534;48.784;9.190;2022-12-19T01:25:36;2.10;99.90
10964;DHT22;5534;48.784;9.190;2022-12-19T01:28:04;2.10;99.90
10964;DHT22;5534;48.784;9.190;2022-12-19T01:30:30;2.10;99.90
10964;DHT22;5534;48.784;9.190;2022-12-19T01:32:56;2.10;99.90
10964;DHT22;5534;48.784;9.190;2022-12-19T01:35:23;2.20;99.90
10964;DHT22;5534;48.784;9.190;2022-12-19T01:37:50;2.00;99.90
10964;DHT22;5534;48.784;9.190;2022-12-19T01:40:17;2.10;99.90
10964;DHT22;5534;48.784;9.190;2022-12-19T01:42:43;2.00;99.90
10964;DHT22;5534;48.784;9.190;2022-12-19T01:50:19;2.00;99.90
10964;DHT22;5534;48.784;9.190;2022-12-19T01:52:47;1.90;99.90
10964;DHT22;5534;48.784;9.190;2022-12-19T01:55:14;1.80;99.90
10964;DHT22;5534;48.784;9.190;2022-12-19T01:57:40;1.60;99.90
10964;DHT22;5534;48.784;9.190;2022-12-19T02:00:07;1.20;99.90
10964;DHT22;5534;48.784;9.190;2022-12-19T02:02:44;1.30;99.90
10964;DHT22;5534;48.784;9.190;2022-12-19T02:05:10;1.50;99.90
10964;DHT22;5534;48.784;9.190;2022-12-19T02:07:37;1.50;99.90
10964;DHT22;5534;48.784;9.190;2022-12-19T02:10:04;1.50;99.90
10964;DHT22;5534;48.784;9.190;2022-12-19T02:12:33;1.60;99.90
10964;DHT22;5534;48.784;9.190;2022-12-19T02:15:03;1.80;99.90
10964;DHT22;5534;48.784;9.190;2022-12-19T02:23:46;1.80;99.90
10964;DHT22;5534;48.784;9.190;2022-12-19T02:26:41;1.90;99.90
10964;DHT22;5534;48.784;9.190;2022-12-19T02:38:08;1.80;99.90
10964;DHT22;5534;48.784;9.190;2022-12-19T02:40:34;1.80;99.90
10964;DHT22;5534;48.784;9.190;2022-12-19T02:43:05;1.70;99.90
10964;DHT22;5534;48.784;9.190;2022-12-19T02:45:34;1.90;99.90
10964;DHT22;5534;48.784;9.190;2022-12-19T02:48:02;1.70;99.90
10964;DHT22;5534;48.784;9.190;2022-12-19T02:50:42;1.80;99.90
10964;DHT22;5534;48.784;9.190;2022-12-19T02:53:13;2.00;99.90
10964;DHT22;5534;48.784;9.190;2022-12-19T03:04:29;2.00;99.90
10964;DHT22;5534;48.784;9.190;2022-12-19T03:07:08;1.40;99.90
10964;DHT22;5534;48.784;9.190;2022-12-19T03:09:57;1.70;99.90
10964;DHT22;5534;48.784;9.190;2022-12-19T03:12:37;2.00;99.90
10964;DHT22;5534;48.784;9.190;2022-12-19T03:15:04;2.10;99.90
10964;DHT22;5534;48.784;9.190;2022-12-19T03:17:35;2.20;99.90
10964;DHT22;5534;48.784;9.190;2022-12-19T03:20:09;2.40;99.90
10964;DHT22;5534;48.784;9.190;2022-12-19T03:22:36;2.40;99.90
10964;DHT22;5534;48.784;9.190;2022-12-19T03:25:02;2.40;99.90
10964;DHT22;5534;48.784;9.190;2022-12-19T03:27:31;2.40;99.90
10964;DHT22;5534;48.784;9.190;2022-12-19T03:30:08;1.80;99.90
10964;DHT22;5534;48.784;9.190;2022-12-19T03:32:36;1.90;99.90
10964;DHT22;5534;48.784;9.190;2022-12-19T03:35:19;2.20;99.90
10964;DHT22;5534;48.784;9.190;2022-12-19T03:37:47;2.30;99.90
10964;DHT22;5534;48.784;9.190;2022-12-19T03:40:17;2.40;99.90
10964;DHT22;5534;48.784;9.190;2022-12-19T03:42:45;2.30;99.90
10964;DHT22;5534;48.784;9.190;2022-12-19T03:48:46;2.10;99.90
10964;DHT22;5534;48.784;9.190;2022-12-19T03:54:09;2.40;99.90
10964;DHT22;5534;48.784;9.190;2022-12-19T03:59:20;2.40;99.90
10964;DHT22;5534;48.784;9.190;2022-12-19T04:01:49;2.40;99.90
10964;DHT22;5534;48.784;9.190;2022-12-19T04:04:19;2.30;99.90
10964;DHT22;5534;48.784;9.190;2022-12-19T04:06:47;2.40;99.90
10964;DHT22;5534;48.784;9.190;2022-12-19T04:09:16;2.20;99.90
10964;DHT22;5534;48.784;9.190;2022-12-19T04:11:48;2.20;99.90
10964;DHT22;5534;48.784;9.190;2022-12-19T04:14:23;2.10;99.90
10964;DHT22;5534;48.784;9.190;2022-12-19T04:19:39;2.40;99.90
10964;DHT22;5534;48.784;9.190;2022-12-19T04:22:15;2.40;99.90
10964;DHT22;5534;48.784;9.190;2022-12-19T04:24:43;2.50;99.90
10964;DHT22;5534;48.784;9.190;2022-12-19T04:27:11;2.50;99.90
10964;DHT22;5534;48.784;9.190;2022-12-19T04:29:38;2.70;99.90
10964;DHT22;5534;48.784;9.190;2022-12-19T04:32:05;2.70;99.90
10964;DHT22;5534;48.784;9.190;2022-12-19T04:34:32;2.70;99.90
10964;DHT22;5534;48.784;9.190;2022-12-19T04:36:58;2.70;99.90
10964;DHT22;5534;48.784;9.190;2022-12-19T04:39:27;2.70;99.90
10964;DHT22;5534;48.784;9.190;2022-12-19T04:41:53;2.70;99.90
10964;DHT22;5534;48.784;9.190;2022-12-19T04:44:19;2.60;99.90
10964;DHT22;5534;48.784;9.190;2022-12-19T04:46:44;2.30;99.90
10964;DHT22;5534;48.784;9.190;2022-12-19T04:49:10;2.30;99.90
10964;DHT22;5534;48.784;9.190;2022-12-19T04:51:36;2.50;99.90
10964;DHT22;5534;48.784;9.190;2022-12-19T04:54:01;2.70;99.90
10964;DHT22;5534;48.784;9.190;2022-12-19T04:56:27;2.80;99.90
10964;DHT22;5534;48.784;9.190;2022-12-19T04:58:57;2.80;99.90
10964;DHT22;5534;48.784;9.190;2022-12-19T05:01:23;2.80;99.90
10964;DHT22;5534;48.784;9.190;2022-12-19T05:03:49;2.80;99.90
10964;DHT22;5534;48.784;9.190;2022-12-19T05:06:15;2.80;99.90
10964;DHT22;5534;48.784;9.190;2022-12-19T05:08:41;2.90;99.90
10964;DHT22;5534;48.784;9.190;2022-12-19T05:11:09;2.90;99.90
10964;DHT22;5534;48.784;9.190;2022-12-19T05:13:35;3.00;99.90
10964;DHT22;5534;48.784;9.190;2022-12-19T05:16:04;3.00;99.90
10964;DHT22;5534;48.784;9.190;2022-12-19T05:18:30;3.00;99.90
10964;DHT22;5534;48.784;9.190;2022-12-19T05:20:56;3.00;99.90
10964;DHT22;5534;48.784;9.190;2022-12-19T05:23:22;3.00;99.90
10964;DHT22;5534;48.784;9.190;2022-12-19T05:25:48;2.90;99.90
10964;DHT22;5534;48.784;9.190;2022-12-19T05:28:15;3.00;99.90
10964;DHT22;5534;48.784;9.190;2022-12-19T05:30:42;2.90;99.90
10964;DHT22;5534;48.784;9.190;2022-12-19T05:33:07;2.90;99.90
10964;DHT22;5534;48.784;9.190;2022-12-19T05:35:34;2.90;99.90
10964;DHT22;5534;48.784;9.190;2022-12-19T05:38:00;3.00;99.90
10964;DHT22;5534;48.784;9.190;2022-12-19T05:40:26;3.10;99.90
10964;DHT22;5534;48.784;9.190;2022-12-19T05:42:51;3.10;99.90
10964;DHT22;5534;48.784;9.190;2022-12-19T05:45:17;3.10;99.90
10964;DHT22;5534;48.784;9.190;2022-12-19T05:47:44;3.00;99.90
10964;DHT22;5534;48.784;9.190;2022-12-19T05:50:12;3.00;99.90
10964;DHT22;5534;48.784;9.190;2022-12-19T05:52:38;3.10;99.90
10964;DHT22;5534;48.784;9.190;2022-12-19T05:55:05;3.10;99.90
10964;DHT22;5534;48.784;9.190;2022-12-19T05:57:32;2.90;99.90
10964;DHT22;5534;48.784;9.190;2022-12-19T06:00:02;2.90;99.90
10964;DHT22;5534;48.784;9.190;2022-12-19T06:02:31;3.00;99.90
10964;DHT22;5534;48.784;9.190;2022-12-19T06:04:58;3.10;99.90
10964;DHT22;5534;48.784;9.190;2022-12-19T06:07:24;3.00;99.90
10964;DHT22;5534;48.784;9.190;2022-12-19T06:09:49;3.20;99.90
10964;DHT22;5534;48.784;9.190;2022-12-19T06:12:15;3.20;99.90
10964;DHT22;5534;48.784;9.190;2022-12-19T06:14:42;3.20;99.90
10964;DHT22;5534;48.784;9.190;2022-12-19T06:17:08;3.10;99.90
10964;DHT22;5534;48.784;9.190;2022-12-19T06:19:33;3.20;99.90
10964;DHT22;5534;48.784;9.190;2022-12-19T06:21:59;3.20;99.90
10964;DHT22;5534;48.784;9.190;2022-12-19T06:24:25;3.00;99.90
10964;DHT22;5534;48.784;9.190;2022-12-19T06:26:51;3.00;99.90
10964;DHT22;5534;48.784;9.190;2022-12-19T06:29:16;3.20;99.90
10964;DHT22;5534;48.784;9.190;2022-12-19T06:31:42;3.30;99.90
10964;DHT22;5534;48.784;9.190;2022-12-19T06:34:09;3.30;99.90
10964;DHT22;5534;48.784;9.190;2022-12-19T06:36:35;3.20;99.90
10964;DHT22;5534;48.784;9.190;2022-12-19T06:39:01;3.10;99.90
10964;DHT22;5534;48.784;9.190;2022-12-19T06:41:27;3.10;99.90
10964;DHT22;5534;48.784;9.190;2022-12-19T06:44:14;3.10;99.90
10964;DHT22;5534;48.784;9.190;2022-12-19T06:46:41;3.20;99.90
10964;DHT22;5534;48.784;9.190;2022-12-19T06:49:07;3.30;99.90
10964;DHT22;5534;48.784;9.190;2022-12-19T06:51:33;3.30;99.90
10964;DHT22;5534;48.784;9.190;2022-12-19T06:53:59;3.20;99.90
10964;DHT22;5534;48.784;9.190;2022-12-19T06:56:25;3.30;99.90
10964;DHT22;5534;48.784;9.190;2022-12-19T06:58:51;3.30;99.90
10964;DHT22;5534;48.784;9.190;2022-12-19T07:01:20;3.30;99.90
10964;DHT22;5534;48.784;9.190;2022-12-19T07:03:49;3.30;99.90
10964;DHT22;5534;48.784;9.190;2022-12-19T07:06:15;3.30;99.90
10964;DHT22;5534;48.784;9.190;2022-12-19T07:08:41;3.20;99.90
10964;DHT22;5534;48.784;9.190;2022-12-19T07:11:06;3.20;99.90
10964;DHT22;5534;48.784;9.190;2022-12-19T07:13:32;3.20;99.90
10964;DHT22;5534;48.784;9.190;2022-12-19T07:16:01;3.00;99.90
10964;DHT22;5534;48.784;9.190;2022-12-19T07:18:29;3.10;99.90
10964;DHT22;5534;48.784;9.190;2022-12-19T07:20:56;3.20;99.90
10964;DHT22;5534;48.784;9.190;2022-12-19T07:23:22;3.30;99.90
10964;DHT22;5534;48.784;9.190;2022-12-19T07:25:48;3.40;99.90
10964;DHT22;5534;48.784;9.190;2022-12-19T07:28:15;3.50;99.90
10964;DHT22;5534;48.784;9.190;2022-12-19T07:30:41;3.50;99.90
10964;DHT22;5534;48.784;9.190;2022-12-19T07:33:07;3.50;99.90
10964;DHT22;5534;48.784;9.190;2022-12-19T07:35:32;3.60;99.90
10964;DHT22;5534;48.784;9.190;2022-12-19T07:38:03;3.60;99.90
10964;DHT22;5534;48.784;9.190;2022-12-19T07:40:30;3.30;99.90
10964;DHT22;5534;48.784;9.190;2022-12-19T07:43:00;3.30;99.90
10964;DHT22;5534;48.784;9.190;2022-12-19T07:45:27;3.50;99.90
10964;DHT22;5534;48.784;9.190;2022-12-19T07:47:53;3.60;99.90
10964;DHT22;5534;48.784;9.190;2022-12-19T07:50:18;3.70;99.90
10964;DHT22;5534;48.784;9.190;2022-12-19T07:52:44;3.70;99.90
10964;DHT22;5534;48.784;9.190;2022-12-19T07:55:10;3.70;99.90
10964;DHT22;5534;48.784;9.190;2022-12-19T07:57:36;3.70;99.90
10964;DHT22;5534;48.784;9.190;2022-12-19T08:00:03;3.70;99.90
10964;DHT22;5534;48.784;9.190;2022-12-19T08:02:30;3.70;99.90
10964;DHT22;5534;48.784;9.190;2022-12-19T08:04:57;3.80;99.90
10964;DHT22;5534;48.784;9.190;2022-12-19T08:07:22;3.80;99.90
10964;DHT22;5534;48.784;9.190;2022-12-19T08:09:48;3.80;99.90
10964;DHT22;5534;48.784;9.190;2022-12-19T08:12:14;3.80;99.90
10964;DHT22;5534;48.784;9.190;2022-12-19T08:14:41;3.80;99.90
10964;DHT22;5534;48.784;9.190;2022-12-19T08:17:07;3.80;99.90
10964;DHT22;5534;48.784;9.190;2022-12-19T08:19:34;3.80;99.90
10964;DHT22;5534;48.784;9.190;2022-12-19T08:22:01;4.00;99.90
10964;DHT22;5534;48.784;9.190;2022-12-19T08:24:28;3.90;99.90
10964;DHT22;5534;48.784;9.190;2022-12-19T08:26:55;4.00;99.90
10964;DHT22;5534;48.784;9.190;2022-12-19T08:29:22;3.90;99.90
10964;DHT22;5534;48.784;9.190;2022-12-19T08:31:47;3.90;99.90
10964;DHT22;5534;48.784;9.190;2022-12-19T08:34:13;4.00;99.90
10964;DHT22;5534;48.784;9.190;2022-12-19T08:36:40;4.00;99.90
10964;DHT22;5534;48.784;9.190;2022-12-19T08:39:06;4.00;99.90
10964;DHT22;5534;48.784;9.190;2022-12-19T08:41:31;3.90;99.90
10964;DHT22;5534;48.784;9.190;2022-12-19T08:43:57;3.90;99.90
10964;DHT22;5534;48.784;9.190;2022-12-19T08:46:23;4.10;99.90
10964;DHT22;5534;48.784;9.190;2022-12-19T08:48:49;4.00;99.90
10964;DHT22;5534;48.784;9.190;2022-12-19T08:51:16;3.90;99.90
10964;DHT22;5534;48.784;9.190;2022-12-19T08:53:43;4.10;99.90
10964;DHT22;5534;48.784;9.190;2022-12-19T08:56:18;4.20;99.90
10964;DHT22;5534;48.784;9.190;2022-12-19T08:58:44;3.90;99.90
10964;DHT22;5534;48.784;9.190;2022-12-19T09:01:13;3.90;99.90
10964;DHT22;5534;48.784;9.190;2022-12-19T09:03:40;4.00;99.90
10964;DHT22;5534;48.784;9.190;2022-12-19T09:06:08;4.20;99.90
10964;DHT22;5534;48.784;9.190;2022-12-19T09:08:35;4.10;99.90
10964;DHT22;5534;48.784;9.190;2022-12-19T09:11:07;4.20;99.90
10964;DHT22;5534;48.784;9.190;2022-12-19T09:13:34;4.40;99.90
10964;DHT22;5534;48.784;9.190;2022-12-19T09:18:31;4.40;99.90
10964;DHT22;5534;48.784;9.190;2022-12-19T09:20:58;4.50;99.90
10964;DHT22;5534;48.784;9.190;2022-12-19T09:23:27;4.50;99.90
10964;DHT22;5534;48.784;9.190;2022-12-19T09:25:54;4.50;99.90
10964;DHT22;5534;48.784;9.190;2022-12-19T09:28:20;4.50;99.90
10964;DHT22;5534;48.784;9.190;2022-12-19T09:30:55;4.50;99.90
10964;DHT22;5534;48.784;9.190;2022-12-19T09:33:21;4.50;99.90
10964;DHT22;5534;48.784;9.190;2022-12-19T09:35:51;4.60;99.90
10964;DHT22;5534;48.784;9.190;2022-12-19T09:38:17;4.60;99.90
10964;DHT22;5534;48.784;9.190;2022-12-19T09:44:04;4.60;99.90
10964;DHT22;5534;48.784;9.190;2022-12-19T09:49:32;4.50;99.90
10964;DHT22;5534;48.784;9.190;2022-12-19T09:54:46;5.20;99.90
10964;DHT22;5534;48.784;9.190;2022-12-19T09:57:38;5.50;99.90
10964;DHT22;5534;48.784;9.190;2022-12-19T10:00:14;5.50;99.90
10964;DHT22;5534;48.784;9.190;2022-12-19T10:02:53;5.40;99.90
10964;DHT22;5534;48.784;9.190;2022-12-19T10:05:34;5.30;99.90
10964;DHT22;5534;48.784;9.190;2022-12-19T10:08:12;5.20;99.90
10964;DHT22;5534;48.784;9.190;2022-12-19T10:11:00;5.20;99.90
10964;DHT22;5534;48.784;9.190;2022-12-19T10:18:56;5.10;99.90
10964;DHT22;5534;48.784;9.190;2022-12-19T10:27:12;5.20;99.90
10964;DHT22;5534;48.784;9.190;2022-12-19T10:29:55;5.20;99.90
10964;DHT22;5534;48.784;9.190;2022-12-19T10:35:35;5.20;99.90
10964;DHT22;5534;48.784;9.190;2022-12-19T10:38:26;5.20;99.90
10964;DHT22;5534;48.784;9.190;2022-12-19T10:44:03;5.20;99.90
10964;DHT22;5534;48.784;9.190;2022-12-19T10:49:13;5.40;99.90
10964;DHT22;5534;48.784;9.190;2022-12-19T10:57:27;5.40;99.90
10964;DHT22;5534;48.784;9.190;2022-12-19T11:02:42;5.20;99.90
10964;DHT22;5534;48.784;9.190;2022-12-19T11:05:30;5.30;99.90
10964;DHT22;5534;48.784;9.190;2022-12-19T11:10:44;5.40;99.90
10964;DHT22;5534;48.784;9.190;2022-12-19T11:13:28;5.50;99.90
10964;DHT22;5534;48.784;9.190;2022-12-19T11:16:05;5.40;99.90
10964;DHT22;5534;48.784;9.190;2022-12-19T11:18:41;5.50;99.90
10964;DHT22;5534;48.784;9.190;2022-12-19T11:21:23;5.50;99.90
10964;DHT22;5534;48.784;9.190;2022-12-19T11:29:16;5.50;99.90
10964;DHT22;5534;48.784;9.190;2022-12-19T11:31:43;5.50;99.90
10964;DHT22;5534;48.784;9.190;2022-12-19T11:34:19;5.70;99.90
10964;DHT22;5534;48.784;9.190;2022-12-19T11:39:54;5.80;99.90
10964;DHT22;5534;48.784;9.190;2022-12-19T11:42:26;5.80;99.90
10964;DHT22;5534;48.784;9.190;2022-12-19T11:47:54;5.80;99.90
10964;DHT22;5534;48.784;9.190;2022-12-19T11:50:26;5.80;99.90
10964;DHT22;5534;48.784;9.190;2022-12-19T11:56:00;5.80;99.90
10964;DHT22;5534;48.784;9.190;2022-12-19T11:58:29;5.80;99.90
10964;DHT22;5534;48.784;9.190;2022-12-19T12:04:00;5.90;99.90
10964;DHT22;5534;48.784;9.190;2022-12-19T12:06:33;6.00;99.90
10964;DHT22;5534;48.784;9.190;2022-12-19T12:09:16;6.10;99.90
10964;DHT22;5534;48.784;9.190;2022-12-19T12:11:53;5.90;99.90
10964;DHT22;5534;48.784;9.190;2022-12-19T12:14:27;5.80;99.90
10964;DHT22;5534;48.784;9.190;2022-12-19T12:19:55;5.90;99.90
10964;DHT22;5534;48.784;9.190;2022-12-19T12:22:47;5.90;99.90
10964;DHT22;5534;48.784;9.190;2022-12-19T12:28:09;6.10;99.90
10964;DHT22;5534;48.784;9.190;2022-12-19T12:33:29;6.30;99.90
10964;DHT22;5534;48.784;9.190;2022-12-19T12:36:03;6.20;99.90
10964;DHT22;5534;48.784;9.190;2022-12-19T12:44:16;5.90;99.90
10964;DHT22;5534;48.784;9.190;2022-12-19T12:46:48;5.90;99.90
10964;DHT22;5534;48.784;9.190;2022-12-19T12:49:49;6.00;99.90
10964;DHT22;5534;48.784;9.190;2022-12-19T12:52:30;6.10;99.90
10964;DHT22;5534;48.784;9.190;2022-12-19T12:54:57;6.20;99.90
10964;DHT22;5534;48.784;9.190;2022-12-19T13:00:13;6.00;99.90
10964;DHT22;5534;48.784;9.190;2022-12-19T13:02:45;6.00;99.90
10964;DHT22;5534;48.784;9.190;2022-12-19T13:05:35;6.10;99.90
10964;DHT22;5534;48.784;9.190;2022-12-19T13:10:54;6.00;99.90
10964;DHT22;5534;48.784;9.190;2022-12-19T13:13:47;6.00;99.90
10964;DHT22;5534;48.784;9.190;2022-12-19T13:19:16;6.20;99.90
10964;DHT22;5534;48.784;9.190;2022-12-19T13:24:37;6.20;99.90
10964;DHT22;5534;48.784;9.190;2022-12-19T13:32:24;6.30;99.90
10964;DHT22;5534;48.784;9.190;2022-12-19T13:35:01;6.20;99.90
10964;DHT22;5534;48.784;9.190;2022-12-19T13:42:25;6.20;99.90
10964;DHT22;5534;48.784;9.190;2022-12-19T13:47:50;6.00;99.90
10964;DHT22;5534;48.784;9.190;2022-12-19T13:50:39;5.90;99.90
10964;DHT22;5534;48.784;9.190;2022-12-19T13:53:14;5.90;99.90
10964;DHT22;5534;48.784;9.190;2022-12-19T13:55:41;5.90;99.90
10964;DHT22;5534;48.784;9.190;2022-12-19T13:58:24;6.10;99.90
10964;DHT22;5534;48.784;9.190;2022-12-19T14:00:52;6.10;99.90
10964;DHT22;5534;48.784;9.190;2022-12-19T14:03:25;6.10;99.90
10964;DHT22;5534;48.784;9.190;2022-12-19T14:06:04;6.10;99.90
10964;DHT22;5534;48.784;9.190;2022-12-19T14:08:31;6.00;99.90
10964;DHT22;5534;48.784;9.190;2022-12-19T14:10:58;6.10;99.90
10964;DHT22;5534;48.784;9.190;2022-12-19T14:13:24;6.20;99.90
10964;DHT22;5534;48.784;9.190;2022-12-19T14:16:16;6.00;99.90
10964;DHT22;5534;48.784;9.190;2022-12-19T14:18:48;6.10;99.90
10964;DHT22;5534;48.784;9.190;2022-12-19T14:21:26;6.10;99.90
10964;DHT22;5534;48.784;9.190;2022-12-19T14:24:31;6.00;99.90
10964;DHT22;5534;48.784;9.190;2022-12-19T14:27:02;6.00;99.90
10964;DHT22;5534;48.784;9.190;2022-12-19T14:29:35;6.10;99.90
10964;DHT22;5534;48.784;9.190;2022-12-19T14:32:03;6.30;99.90
10964;DHT22;5534;48.784;9.190;2022-12-19T14:34:32;6.40;99.90
10964;DHT22;5534;48.784;9.190;2022-12-19T14:36:59;6.10;99.90
10964;DHT22;5534;48.784;9.190;2022-12-19T14:39:31;6.10;99.90
10964;DHT22;5534;48.784;9.190;2022-12-19T14:42:12;5.90;99.90
10964;DHT22;5534;48.784;9.190;2022-12-19T14:44:57;6.00;99.90
10964;DHT22;5534;48.784;9.190;2022-12-19T14:47:32;5.80;99.90
10964;DHT22;5534;48.784;9.190;2022-12-19T14:49:59;5.90;99.90
10964;DHT22;5534;48.784;9.190;2022-12-19T14:52:39;5.70;99.90
10964;DHT22;5534;48.784;9.190;2022-12-19T14:55:28;5.60;99.90
10964;DHT22;5534;48.784;9.190;2022-12-19T14:57:56;5.70;99.90
10964;DHT22;5534;48.784;9.190;2022-12-19T15:00:28;5.70;99.90
10964;DHT22;5534;48.784;9.190;2022-12-19T15:02:56;5.70;99.90
10964;DHT22;5534;48.784;9.190;2022-12-19T15:05:23;5.70;99.90
10964;DHT22;5534;48.784;9.190;2022-12-19T15:07:51;5.70;99.90
10964;DHT22;5534;48.784;9.190;2022-12-19T15:10:31;5.70;99.90
10964;DHT22;5534;48.784;9.190;2022-12-19T15:12:59;5.70;99.90
10964;DHT22;5534;48.784;9.190;2022-12-19T15:16:00;5.70;99.90
10964;DHT22;5534;48.784;9.190;2022-12-19T15:21:00;5.70;99.90
10964;DHT22;5534;48.784;9.190;2022-12-19T15:23:27;5.70;99.90
10964;DHT22;5534;48.784;9.190;2022-12-19T15:25:54;5.70;99.90
10964;DHT22;5534;48.784;9.190;2022-12-19T15:28:24;5.70;99.90
10964;DHT22;5534;48.784;9.190;2022-12-19T15:30:56;5.70;99.90
10964;DHT22;5534;48.784;9.190;2022-12-19T15:33:26;5.60;99.90
10964;DHT22;5534;48.784;9.190;2022-12-19T15:35:52;5.70;99.90
10964;DHT22;5534;48.784;9.190;2022-12-19T15:38:18;5.70;99.90
10964;DHT22;5534;48.784;9.190;2022-12-19T15:40:44;5.60;99.90
10964;DHT22;5534;48.784;9.190;2022-12-19T15:43:29;5.60;99.90
10964;DHT22;5534;48.784;9.190;2022-12-19T15:45:57;5.60;99.90
10964;DHT22;5534;48.784;9.190;2022-12-19T15:48:24;5.80;99.90
10964;DHT22;5534;48.784;9.190;2022-12-19T15:50:51;5.60;99.90
10964;DHT22;5534;48.784;9.190;2022-12-19T15:53:28;5.60;99.90
10964;DHT22;5534;48.784;9.190;2022-12-19T15:55:56;5.60;99.90
10964;DHT22;5534;48.784;9.190;2022-12-19T15:58:24;5.70;99.90
10964;DHT22;5534;48.784;9.190;2022-12-19T16:00:56;5.80;99.90
10964;DHT22;5534;48.784;9.190;2022-12-19T16:03:23;5.80;99.90
10964;DHT22;5534;48.784;9.190;2022-12-19T16:05:50;5.70;99.90
10964;DHT22;5534;48.784;9.190;2022-12-19T16:08:19;5.80;99.90
10964;DHT22;5534;48.784;9.190;2022-12-19T16:10:51;5.80;99.90
10964;DHT22;5534;48.784;9.190;2022-12-19T16:13:29;5.80;99.90
10964;DHT22;5534;48.784;9.190;2022-12-19T16:15:57;5.70;99.90
10964;DHT22;5534;48.784;9.190;2022-12-19T16:18:22;5.90;99.90
10964;DHT22;5534;48.784;9.190;2022-12-19T16:20:48;6.10;99.90
10964;DHT22;5534;48.784;9.190;2022-12-19T16:23:14;6.10;99.90
10964;DHT22;5534;48.784;9.190;2022-12-19T16:25:46;6.00;99.90
10964;DHT22;5534;48.784;9.190;2022-12-19T16:28:22;6.00;99.90
10964;DHT22;5534;48.784;9.190;2022-12-19T16:30:50;6.00;99.90
10964;DHT22;5534;48.784;9.190;2022-12-19T16:33:21;5.90;99.90
10964;DHT22;5534;48.784;9.190;2022-12-19T16:35:49;5.90;99.90
10964;DHT22;5534;48.784;9.190;2022-12-19T16:38:15;5.90;99.90
10964;DHT22;5534;48.784;9.190;2022-12-19T16:40:42;5.90;99.90
10964;DHT22;5534;48.784;9.190;2022-12-19T16:43:14;5.90;99.90
10964;DHT22;5534;48.784;9.190;2022-12-19T16:45:42;5.90;99.90
10964;DHT22;5534;48.784;9.190;2022-12-19T16:48:19;5.90;99.90
10964;DHT22;5534;48.784;9.190;2022-12-19T16:50:45;5.80;99.90
10964;DHT22;5534;48.784;9.190;2022-12-19T16:53:12;5.80;99.90
10964;DHT22;5534;48.784;9.190;2022-12-19T16:55:39;5.80;99.90
10964;DHT22;5534;48.784;9.190;2022-12-19T16:58:05;5.70;99.90
10964;DHT22;5534;48.784;9.190;2022-12-19T17:00:31;5.50;99.90
10964;DHT22;5534;48.784;9.190;2022-12-19T17:03:07;5.40;99.90
10964;DHT22;5534;48.784;9.190;2022-12-19T17:05:35;5.60;99.90
10964;DHT22;5534;48.784;9.190;2022-12-19T17:08:00;5.70;99.90
10964;DHT22;5534;48.784;9.190;2022-12-19T17:10:32;5.80;99.90
10964;DHT22;5534;48.784;9.190;2022-12-19T17:12:58;5.70;99.90
10964;DHT22;5534;48.784;9.190;2022-12-19T17:15:32;5.70;99.90
10964;DHT22;5534;48.784;9.190;2022-12-19T17:18:01;5.60;99.90
10964;DHT22;5534;48.784;9.190;2022-12-19T17:20:34;5.50;99.90
10964;DHT22;5534;48.784;9.190;2022-12-19T17:23:02;5.40;99.90
10964;DHT22;5534;48.784;9.190;2022-12-19T17:25:28;5.40;99.90
10964;DHT22;5534;48.784;9.190;2022-12-19T17:27:54;5.50;99.90
10964;DHT22;5534;48.784;9.190;2022-12-19T17:30:21;5.60;99.90
10964;DHT22;5534;48.784;9.190;2022-12-19T17:32:49;5.60;99.90
10964;DHT22;5534;48.784;9.190;2022-12-19T17:35:18;5.60;99.90
10964;DHT22;5534;48.784;9.190;2022-12-19T17:37:49;5.50;99.90
10964;DHT22;5534;48.784;9.190;2022-12-19T17:40:32;5.50;99.90
10964;DHT22;5534;48.784;9.190;2022-12-19T17:46:22;5.50;99.90
10964;DHT22;5534;48.784;9.190;2022-12-19T17:48:50;5.50;99.90
10964;DHT22;5534;48.784;9.190;2022-12-19T17:51:20;5.70;99.90
10964;DHT22;5534;48.784;9.190;2022-12-19T17:53:47;5.90;99.90
10964;DHT22;5534;48.784;9.190;2022-12-19T17:56:16;5.90;99.90
10964;DHT22;5534;48.784;9.190;2022-12-19T17:58:42;5.80;99.90
10964;DHT22;5534;48.784;9.190;2022-12-19T18:01:19;5.80;99.90
10964;DHT22;5534;48.784;9.190;2022-12-19T18:03:46;5.80;99.90
10964;DHT22;5534;48.784;9.190;2022-12-19T18:06:13;5.60;99.90
10964;DHT22;5534;48.784;9.190;2022-12-19T18:08:44;5.70;99.90
10964;DHT22;5534;48.784;9.190;2022-12-19T18:11:19;5.70;99.90
10964;DHT22;5534;48.784;9.190;2022-12-19T18:13:51;5.70;99.90
10964;DHT22;5534;48.784;9.190;2022-12-19T18:16:21;5.70;99.90
10964;DHT22;5534;48.784;9.190;2022-12-19T18:18:48;5.80;99.90
10964;DHT22;5534;48.784;9.190;2022-12-19T18:21:17;5.70;99.90
10964;DHT22;5534;48.784;9.190;2022-12-19T18:23:43;5.90;99.90
10964;DHT22;5534;48.784;9.190;2022-12-19T18:26:10;5.90;99.90
10964;DHT22;5534;48.784;9.190;2022-12-19T18:28:36;5.90;99.90
10964;DHT22;5534;48.784;9.190;2022-12-19T18:31:15;5.90;99.90
10964;DHT22;5534;48.784;9.190;2022-12-19T18:33:44;5.90;99.90
10964;DHT22;5534;48.784;9.190;2022-12-19T18:36:17;5.90;99.90
10964;DHT22;5534;48.784;9.190;2022-12-19T18:38:43;5.90;99.90
10964;DHT22;5534;48.784;9.190;2022-12-19T18:41:15;6.00;99.90
10964;DHT22;5534;48.784;9.190;2022-12-19T18:43:41;6.00;99.90
10964;DHT22;5534;48.784;9.190;2022-12-19T18:46:12;5.70;99.90